Time;durP1;ratioP1;P1;durP2;ratioP2;P2;SDS_P1;SDS_P2;PMS_P1;PMS_P2;Temp;Humidity;BMP_temperature;BMP_pressure;BME280_temperature;BME280_humidity;BME280_pressure;Samples;Min_cycle;Max_cycle;Signal;HPM_P1;HPM_P2
2023/01/14 00:01:09;;;;;;;30.57;23.43;;;8.70;1.00;;;;;;5015080;28;20022;-55
2023/01/14 00:03:35;;;;;;;29.07;23.67;;;8.70;1.00;;;;;;5014993;28;20034;-53
2023/01/14 00:06:00;;;;;;;32.90;23.30;;;8.70;1.00;;;;;;5013544;28;20026;-53
2023/01/14 00:08:28;;;;;;;30.13;24.17;;;8.70;1.00;;;;;;5006884;28;20025;-56
2023/01/14 00:10:54;;;;;;;29.33;22.97;;;8.70;1.00;;;;;;5013097;28;20096;-56
2023/01/14 00:13:20;;;;;;;32.30;24.30;;;8.70;1.00;;;;;;5014577;28;20497;-56
2023/01/14 00:15:56;;;;;;;30.47;23.23;;;8.60;1.00;;;;;;5014669;28;20030;-53
2023/01/14 00:18:23;;;;;;;27.23;23.07;;;8.70;1.00;;;;;;4997110;28;20379;-55
2023/01/14 00:20:56;;;;;;;28.93;21.93;;;8.70;1.00;;;;;;5014566;28;20033;-56
2023/01/14 00:23:22;;;;;;;29.63;22.47;;;8.70;1.00;;;;;;5008085;28;20030;-56
2023/01/14 00:25:48;;;;;;;32.93;24.10;;;8.70;1.00;;;;;;5009236;28;20030;-54
2023/01/14 00:28:13;;;;;;;30.37;23.17;;;8.70;1.00;;;;;;5014452;28;20384;-54
2023/01/14 00:30:41;;;;;;;30.03;22.67;;;8.70;1.00;;;;;;5014387;28;20025;-52
2023/01/14 00:33:06;;;;;;;30.80;22.70;;;8.70;1.00;;;;;;5014468;28;20026;-55
2023/01/14 00:35:32;;;;;;;28.07;22.97;;;8.70;1.00;;;;;;5014259;28;20451;-56
2023/01/14 00:37:57;;;;;;;28.40;22.40;;;8.60;1.00;;;;;;5014136;28;20133;-51
2023/01/14 00:40:23;;;;;;;28.70;22.73;;;8.60;1.00;;;;;;5014542;28;20026;-53
2023/01/14 00:42:49;;;;;;;28.80;22.27;;;8.60;1.00;;;;;;5014053;28;20041;-52
2023/01/14 00:45:14;;;;;;;29.60;22.70;;;8.60;1.00;;;;;;5000328;28;20077;-55
2023/01/14 00:47:40;;;;;;;31.50;23.40;;;8.50;1.00;;;;;;5014022;28;20032;-54
2023/01/14 00:50:06;;;;;;;32.50;23.03;;;8.60;1.00;;;;;;4996477;28;20073;-54
2023/01/14 00:52:32;;;;;;;27.47;22.23;;;8.60;1.00;;;;;;5014102;28;20109;-53
2023/01/14 00:54:57;;;;;;;30.47;22.90;;;8.60;1.00;;;;;;5014045;28;20041;-51
2023/01/14 00:57:23;;;;;;;29.57;23.07;;;8.60;1.00;;;;;;5014094;28;20395;-54
2023/01/14 00:59:49;;;;;;;30.10;23.10;;;8.50;1.00;;;;;;5014243;28;20030;-55
2023/01/14 01:02:14;;;;;;;29.93;23.77;;;8.50;1.00;;;;;;5013807;28;20022;-56
2023/01/14 01:04:40;;;;;;;27.00;23.33;;;8.60;1.00;;;;;;5012971;28;20026;-52
2023/01/14 01:07:05;;;;;;;29.80;22.87;;;8.50;1.00;;;;;;4995862;28;20022;-52
2023/01/14 01:09:31;;;;;;;31.97;23.77;;;8.60;1.00;;;;;;5013979;28;20034;-53
2023/01/14 01:11:57;;;;;;;30.87;22.73;;;8.50;1.00;;;;;;5013744;28;20487;-54
2023/01/14 01:14:24;;;;;;;32.43;24.40;;;8.50;1.00;;;;;;5013812;28;20022;-54
2023/01/14 01:16:49;;;;;;;31.13;23.03;;;8.50;1.00;;;;;;5013787;28;20032;-51
2023/01/14 01:19:16;;;;;;;31.00;24.00;;;8.50;1.00;;;;;;5013578;28;20018;-51
2023/01/14 01:21:41;;;;;;;28.57;24.57;;;8.40;1.00;;;;;;5013775;28;20033;-51
2023/01/14 01:24:07;;;;;;;32.00;24.37;;;8.40;1.00;;;;;;5013559;28;20033;-53
2023/01/14 01:26:33;;;;;;;28.07;23.73;;;8.40;1.00;;;;;;5013860;28;20123;-56
2023/01/14 01:28:58;;;;;;;32.73;23.40;;;8.40;1.00;;;;;;5013410;28;20104;-55
2023/01/14 01:31:26;;;;;;;31.93;24.00;;;8.40;1.00;;;;;;5012855;28;20487;-55
2023/01/14 01:33:51;;;;;;;33.03;23.67;;;8.40;1.00;;;;;;4995630;28;20459;-55
2023/01/14 01:36:24;;;;;;;28.83;23.50;;;8.40;1.00;;;;;;5013322;28;20030;-51
2023/01/14 01:38:50;;;;;;;31.23;23.87;;;8.30;1.00;;;;;;5013387;28;20096;-52
2023/01/14 01:41:16;;;;;;;31.70;23.50;;;8.30;1.00;;;;;;5013145;28;20419;-52
2023/01/14 01:43:57;;;;;;;30.47;23.40;;;8.30;1.00;;;;;;5013206;28;20065;-51
2023/01/14 01:46:23;;;;;;;31.43;23.97;;;8.30;1.00;;;;;;5013454;28;20549;-51
2023/01/14 01:48:48;;;;;;;30.87;23.37;;;8.30;1.00;;;;;;5013320;28;20026;-53
2023/01/14 01:51:18;;;;;;;32.97;24.40;;;8.40;1.00;;;;;;5013580;28;20096;-50
2023/01/14 01:53:48;;;;;;;31.53;23.30;;;8.40;1.00;;;;;;5013243;28;20025;-54
2023/01/14 01:56:18;;;;;;;34.80;25.77;;;8.40;1.00;;;;;;4995334;28;20026;-52
2023/01/14 01:58:44;;;;;;;29.37;23.03;;;8.40;1.00;;;;;;5013065;28;20053;-52
2023/01/14 02:01:11;;;;;;;32.00;24.00;;;8.30;1.00;;;;;;5012973;28;20054;-51
2023/01/14 02:03:40;;;;;;;30.80;22.53;;;8.30;1.00;;;;;;5012628;28;20091;-52
2023/01/14 02:06:06;;;;;;;33.40;23.87;;;8.30;1.00;;;;;;5012040;28;20459;-52
2023/01/14 02:08:33;;;;;;;35.23;23.17;;;8.40;1.00;;;;;;5012275;28;20026;-53
2023/01/14 02:11:27;;;;;;;29.53;22.83;;;8.30;1.00;;;;;;5012146;28;20571;-53
2023/01/14 02:14:10;;;;;;;36.00;24.23;;;8.30;1.00;;;;;;5012318;28;20053;-51
2023/01/14 02:20:10;;;;;;;34.40;24.27;;;8.30;1.00;;;;;;4996290;28;20080;-56
2023/01/14 02:22:51;;;;;;;33.70;24.97;;;8.20;1.00;;;;;;5009208;28;20431;-53
2023/01/14 02:25:36;;;;;;;33.40;23.20;;;8.20;1.00;;;;;;5012343;28;20037;-54
2023/01/14 02:28:22;;;;;;;32.40;23.88;;;8.20;1.00;;;;;;5011949;28;20394;-52
2023/01/14 02:31:06;;;;;;;30.70;25.57;;;8.20;1.00;;;;;;5012869;28;20038;-52
2023/01/14 02:33:51;;;;;;;34.63;25.43;;;8.20;1.00;;;;;;5000953;28;20022;-53
2023/01/14 02:36:31;;;;;;;31.67;24.45;;;8.10;1.00;;;;;;5012702;28;20435;-52
2023/01/14 02:39:10;;;;;;;34.53;25.77;;;8.20;1.00;;;;;;5012680;28;20094;-52
2023/01/14 02:44:42;;;;;;;30.50;23.27;;;8.10;1.00;;;;;;5012672;28;20458;-51
2023/01/14 02:47:23;;;;;;;31.93;25.60;;;8.10;1.00;;;;;;5012860;28;20417;-51
2023/01/14 02:49:52;;;;;;;34.77;24.57;;;8.10;1.00;;;;;;5000326;28;20104;-50
2023/01/14 02:52:27;;;;;;;31.83;23.70;;;8.10;1.00;;;;;;5012325;28;20026;-51
2023/01/14 02:54:54;;;;;;;;;;;7.90;1.00;;;;;;5013034;28;20451;-50
2023/01/14 02:57:49;;;;;;;28.00;22.87;;;7.90;1.00;;;;;;5012243;28;20000;-52
2023/01/14 03:00:17;;;;;;;30.33;22.30;;;8.00;1.00;;;;;;5005644;28;20060;-52
2023/01/14 03:03:11;;;;;;;29.37;24.10;;;8.10;1.00;;;;;;4998870;28;20026;-53
2023/01/14 03:06:01;;;;;;;34.30;23.83;;;8.10;1.00;;;;;;5012556;28;20357;-52
2023/01/14 03:09:01;;;;;;;29.83;22.70;;;8.00;1.00;;;;;;5012193;28;20528;-52
2023/01/14 03:11:39;;;;;;;31.17;23.80;;;8.00;1.00;;;;;;5000563;28;20487;-52
2023/01/14 03:14:17;;;;;;;28.90;23.20;;;8.00;1.00;;;;;;5012246;28;20026;-56
2023/01/14 03:16:49;;;;;;;31.50;22.67;;;8.00;1.00;;;;;;4996363;28;20517;-51
2023/01/14 03:19:29;;;;;;;27.73;21.97;;;8.00;1.00;;;;;;5012302;28;20033;-50
2023/01/14 03:21:58;;;;;;;34.77;22.93;;;8.00;1.00;;;;;;5012397;28;20108;-51
2023/01/14 03:24:33;;;;;;;30.60;22.50;;;7.90;1.00;;;;;;5012438;28;20090;-51
2023/01/14 03:27:08;;;;;;;29.27;22.23;;;7.90;1.00;;;;;;5010074;28;20055;-51
2023/01/14 03:29:40;;;;;;;29.42;23.10;;;7.90;1.00;;;;;;5012337;28;20026;-52
2023/01/14 03:32:10;;;;;;;32.47;24.33;;;7.80;1.00;;;;;;4994448;28;20121;-51
2023/01/14 03:34:42;;;;;;;31.30;22.80;;;7.90;1.00;;;;;;5012037;28;20391;-51
2023/01/14 03:37:11;;;;;;;31.27;22.50;;;7.90;1.00;;;;;;5012276;28;20021;-54
2023/01/14 03:39:38;;;;;;;27.80;22.30;;;7.90;1.00;;;;;;5011921;28;20034;-53
2023/01/14 03:42:19;;;;;;;29.53;22.40;;;8.00;1.00;;;;;;5012288;28;20021;-56
2023/01/14 03:45:08;;;;;;;29.67;22.47;;;8.00;1.00;;;;;;5011905;28;20085;-52
2023/01/14 03:47:36;;;;;;;29.83;23.07;;;8.00;1.00;;;;;;5015641;28;20033;-55
2023/01/14 03:50:08;;;;;;;29.93;23.30;;;8.00;1.00;;;;;;5015433;28;20076;-56
2023/01/14 03:52:48;;;;;;;28.57;23.03;;;8.00;1.00;;;;;;5015432;28;20033;-54
2023/01/14 03:55:33;;;;;;;30.83;22.83;;;8.00;1.00;;;;;;5015269;28;20037;-53
2023/01/14 03:58:24;;;;;;;34.28;23.70;;;7.90;1.00;;;;;;5015536;28;20030;-54
2023/01/14 04:01:02;;;;;;;33.70;23.10;;;7.90;1.00;;;;;;5003478;28;20072;-50
2023/01/14 04:03:28;;;;;;;26.93;23.10;;;8.00;1.00;;;;;;5015139;28;20109;-53
2023/01/14 04:05:55;;;;;;;30.27;22.90;;;7.90;1.00;;;;;;5015052;28;20058;-50
2023/01/14 04:08:22;;;;;;;31.33;22.97;;;7.90;1.00;;;;;;5015174;28;20053;-52
2023/01/14 04:10:48;;;;;;;27.97;22.57;;;7.90;1.00;;;;;;5001670;28;20034;-53
2023/01/14 04:15:59;;;;;;;30.73;23.97;;;8.00;1.00;;;;;;5002709;28;20521;-53
2023/01/14 04:18:25;;;;;;;32.40;23.60;;;7.90;1.00;;;;;;5014972;28;20018;-51
2023/01/14 04:20:51;;;;;;;31.30;22.93;;;7.90;1.00;;;;;;5014798;28;20045;-51
2023/01/14 04:23:16;;;;;;;31.33;23.03;;;7.90;1.00;;;;;;5015024;28;20100;-51
2023/01/14 04:25:42;;;;;;;28.73;22.00;;;7.90;1.00;;;;;;5014584;28;20394;-51
2023/01/14 04:28:08;;;;;;;30.77;22.03;;;7.90;1.00;;;;;;5014929;28;20468;-51
2023/01/14 04:30:33;;;;;;;35.13;22.87;;;8.00;1.00;;;;;;5014469;28;20076;-51
2023/01/14 04:32:59;;;;;;;34.43;23.60;;;7.90;1.00;;;;;;5014669;28;20068;-53
2023/01/14 04:35:25;;;;;;;31.30;23.27;;;7.90;1.00;;;;;;5014686;28;20029;-50
2023/01/14 04:37:54;;;;;;;30.83;23.33;;;7.90;1.00;;;;;;5014210;28;20025;-51
2023/01/14 04:40:20;;;;;;;33.63;23.80;;;7.90;1.00;;;;;;5014238;28;20077;-53
2023/01/14 04:42:46;;;;;;;29.93;22.23;;;7.80;1.00;;;;;;5014557;28;20022;-52
2023/01/14 04:45:12;;;;;;;29.20;23.40;;;7.80;1.00;;;;;;5014012;28;20107;-50
2023/01/14 04:47:38;;;;;;;29.30;22.40;;;7.80;1.00;;;;;;5014399;28;20029;-52
2023/01/14 04:50:30;;;;;;;31.90;22.90;;;7.80;1.00;;;;;;5014009;28;20022;-51
2023/01/14 04:52:51;;;;;;;31.93;23.93;;;7.80;1.00;;;;;;5013808;28;20052;-50
2023/01/14 04:55:17;;;;;;;30.93;24.00;;;7.70;1.00;;;;;;5012813;28;20097;-50
2023/01/14 04:57:43;;;;;;;30.20;24.60;;;7.70;1.00;;;;;;5011074;28;20168;-55
2023/01/14 05:00:10;;;;;;;34.50;26.30;;;7.80;1.00;;;;;;5012636;28;20116;-55
2023/01/14 05:02:35;;;;;;;38.40;29.83;;;7.60;1.00;;;;;;5013169;28;20027;-55
2023/01/14 05:05:01;;;;;;;40.37;31.27;;;7.60;1.00;;;;;;5013399;28;20038;-54
2023/01/14 05:07:27;;;;;;;44.27;34.00;;;7.50;1.00;;;;;;5013591;28;20033;-54
2023/01/14 05:09:53;;;;;;;43.43;31.83;;;7.50;1.00;;;;;;5013646;28;20021;-54
2023/01/14 05:12:18;;;;;;;48.23;34.83;;;7.60;1.00;;;;;;5013918;28;20108;-52
2023/01/14 05:14:44;;;;;;;49.77;37.53;;;7.60;1.00;;;;;;5013691;28;20022;-52
2023/01/14 05:17:09;;;;;;;53.53;38.10;;;7.50;1.00;;;;;;5013601;28;20061;-54
2023/01/14 05:19:35;;;;;;;54.87;38.77;;;7.50;1.00;;;;;;5013552;28;20499;-50
2023/01/14 05:22:00;;;;;;;51.53;36.97;;;7.50;1.00;;;;;;5013518;28;20018;-52
2023/01/14 05:24:27;;;;;;;50.43;37.30;;;7.50;1.00;;;;;;5013818;28;20083;-53
2023/01/14 05:26:53;;;;;;;50.13;35.67;;;7.50;1.00;;;;;;5013594;28;20022;-51
2023/01/14 05:29:18;;;;;;;54.77;36.57;;;7.50;1.00;;;;;;5013592;28;20041;-51
2023/01/14 05:31:46;;;;;;;44.60;32.93;;;7.50;1.00;;;;;;5013337;28;20037;-53
2023/01/14 05:34:12;;;;;;;46.67;35.00;;;7.50;1.00;;;;;;5013454;28;20014;-55
2023/01/14 05:36:37;;;;;;;49.77;34.87;;;7.50;1.00;;;;;;5013008;28;20057;-50
2023/01/14 05:39:03;;;;;;;43.40;32.73;;;7.50;1.00;;;;;;5013209;28;20020;-52
2023/01/14 05:41:29;;;;;;;39.80;31.90;;;7.50;1.00;;;;;;5013272;28;20120;-51
2023/01/14 05:46:58;;;;;;;40.87;31.37;;;7.50;1.00;;;;;;4985124;28;20540;-51
2023/01/14 05:49:24;;;;;;;41.97;31.53;;;7.50;1.00;;;;;;4984075;28;20034;-53
2023/01/14 05:51:49;;;;;;;42.57;31.87;;;7.60;1.00;;;;;;4987256;28;20042;-50
2023/01/14 05:54:15;;;;;;;48.17;34.30;;;7.50;1.00;;;;;;5013086;28;20475;-54
2023/01/14 05:56:40;;;;;;;45.97;33.17;;;7.50;1.00;;;;;;5013225;28;20034;-54
2023/01/14 05:59:06;;;;;;;42.63;32.73;;;7.50;1.00;;;;;;4995544;28;20030;-53
2023/01/14 06:07:00;;;;;;;50.20;33.40;;;7.50;1.00;;;;;;5013338;28;20028;-53
2023/01/14 06:09:25;;;;;;;48.20;35.80;;;7.50;1.00;;;;;;4994550;28;20026;-51
2023/01/14 06:12:01;;;;;;;51.70;35.37;;;7.40;1.00;;;;;;5012726;28;20405;-53
2023/01/14 06:14:33;;;;;;;48.17;33.70;;;7.40;1.00;;;;;;5012797;28;20037;-49
2023/01/14 06:17:08;;;;;;;50.17;33.47;;;7.40;1.00;;;;;;5012844;28;20050;-49
2023/01/14 06:19:34;;;;;;;;;;;7.30;1.00;;;;;;5013157;28;20033;-53
2023/01/14 06:21:59;;;;;;;40.90;28.63;;;7.30;1.00;;;;;;5012948;28;19906;-53
2023/01/14 06:24:25;;;;;;;46.90;29.53;;;7.30;1.00;;;;;;5012573;28;20033;-51
2023/01/14 06:26:51;;;;;;;48.10;31.07;;;7.30;1.00;;;;;;5012622;28;20029;-51
2023/01/14 06:29:16;;;;;;;39.43;31.10;;;7.30;1.00;;;;;;5012953;28;20500;-53
2023/01/14 06:31:42;;;;;;;42.50;30.03;;;7.10;1.00;;;;;;4995041;28;20065;-54
2023/01/14 06:34:08;;;;;;;42.90;29.67;;;7.00;1.00;;;;;;5012794;28;20475;-52
2023/01/14 06:36:36;;;;;;;42.97;30.50;;;7.00;1.00;;;;;;4994814;28;20433;-53
2023/01/14 06:39:02;;;;;;;40.33;30.47;;;7.00;1.00;;;;;;5012727;28;20026;-50
2023/01/14 06:41:28;;;;;;;39.90;28.87;;;6.90;1.00;;;;;;5012565;28;20187;-52
2023/01/14 06:43:54;;;;;;;37.90;27.47;;;6.80;1.00;;;;;;5012486;28;20022;-51
2023/01/14 06:46:19;;;;;;;36.87;27.03;;;6.70;1.00;;;;;;5012251;28;20056;-52
2023/01/14 06:48:45;;;;;;;34.77;25.10;;;6.80;1.00;;;;;;4994916;28;20037;-52
2023/01/14 06:51:16;;;;;;;34.27;24.77;;;6.70;1.00;;;;;;5012520;28;20161;-51
2023/01/14 06:53:43;;;;;;;36.37;25.90;;;6.70;1.00;;;;;;5011987;28;20025;-55
2023/01/14 06:56:11;;;;;;;31.73;24.37;;;6.60;1.00;;;;;;5012398;28;20225;-51
2023/01/14 06:58:37;;;;;;;35.43;25.83;;;6.70;1.00;;;;;;4994491;28;20387;-51
2023/01/14 07:07:47;;;;;;;35.53;26.33;;;6.80;1.00;;;;;;5001162;28;20037;-50
2023/01/14 07:10:14;;;;;;;34.97;25.37;;;6.80;1.00;;;;;;5003353;28;20073;-52
2023/01/14 07:12:45;;;;;;;35.50;26.50;;;6.80;1.00;;;;;;5011811;28;20490;-54
2023/01/14 07:15:11;;;;;;;33.30;24.67;;;6.80;1.00;;;;;;5012095;28;20097;-54
2023/01/14 07:17:37;;;;;;;41.20;25.80;;;6.90;1.00;;;;;;5011830;28;20392;-52
2023/01/14 07:20:03;;;;;;;36.63;26.27;;;6.90;1.00;;;;;;5013751;28;20060;-51
2023/01/14 07:22:29;;;;;;;39.57;26.20;;;6.90;1.00;;;;;;4998044;28;20030;-51
2023/01/14 07:24:54;;;;;;;41.47;26.93;;;6.80;1.00;;;;;;5015953;28;20391;-50
2023/01/14 07:27:20;;;;;;;34.00;25.67;;;6.80;1.00;;;;;;5016117;28;20061;-51
2023/01/14 07:29:46;;;;;;;36.77;26.03;;;6.80;1.00;;;;;;5015785;28;20053;-52
2023/01/14 07:32:11;;;;;;;36.53;26.37;;;6.80;1.00;;;;;;5015674;28;20026;-51
2023/01/14 07:34:37;;;;;;;40.97;27.43;;;6.80;1.00;;;;;;5016132;28;20050;-54
2023/01/14 07:37:03;;;;;;;40.43;27.27;;;6.70;1.00;;;;;;5015579;28;20030;-49
2023/01/14 07:39:28;;;;;;;37.70;28.70;;;6.60;1.00;;;;;;5015323;28;20045;-50
2023/01/14 07:41:55;;;;;;;38.57;28.00;;;6.50;1.00;;;;;;5015068;28;20101;-50
2023/01/14 07:44:23;;;;;;;37.53;27.50;;;6.70;1.00;;;;;;5015082;28;20025;-50
2023/01/14 07:46:54;;;;;;;38.80;27.57;;;6.70;1.00;;;;;;5015280;28;20084;-51
2023/01/14 07:49:21;;;;;;;44.57;29.37;;;6.80;1.00;;;;;;5015388;28;20114;-50
2023/01/14 07:51:47;;;;;;;43.03;31.13;;;6.70;1.00;;;;;;5015221;28;20030;-50
2023/01/14 07:54:13;;;;;;;41.83;30.77;;;6.80;1.00;;;;;;5015492;28;20017;-50
2023/01/14 07:56:39;;;;;;;43.03;31.47;;;6.70;1.00;;;;;;5015050;28;20030;-49
2023/01/14 07:59:04;;;;;;;40.67;31.23;;;6.70;1.00;;;;;;5008594;28;20022;-53
2023/01/14 08:01:30;;;;;;;44.83;34.10;;;6.80;1.00;;;;;;5008687;28;20033;-52
2023/01/14 08:03:58;;;;;;;48.33;34.00;;;6.80;1.00;;;;;;5015366;28;20079;-53
2023/01/14 08:06:23;;;;;;;45.93;33.50;;;6.80;1.00;;;;;;5014988;28;20025;-49
2023/01/14 08:08:49;;;;;;;47.80;34.10;;;6.80;1.00;;;;;;5015184;28;20447;-51
2023/01/14 08:11:14;;;;;;;50.40;35.40;;;6.90;1.00;;;;;;5008204;28;20084;-51
2023/01/14 08:13:40;;;;;;;51.13;36.30;;;6.90;1.00;;;;;;5015016;28;20036;-52
2023/01/14 08:16:07;;;;;;;49.03;36.27;;;6.90;1.00;;;;;;5014867;28;20490;-51
2023/01/14 08:18:34;;;;;;;47.33;35.33;;;6.70;1.00;;;;;;5015276;28;20086;-50
2023/01/14 08:21:03;;;;;;;53.17;35.73;;;6.90;1.00;;;;;;4997173;28;20359;-50
2023/01/14 08:23:30;;;;;;;48.60;37.07;;;6.90;1.00;;;;;;5014649;28;20053;-51
2023/01/14 08:26:04;;;;;;;45.30;34.77;;;6.90;1.00;;;;;;5014873;28;20098;-53
2023/01/14 08:28:31;;;;;;;53.28;33.70;;;7.00;1.00;;;;;;5014340;28;20045;-50
2023/01/14 08:31:07;;;;;;;48.97;35.50;;;7.10;1.00;;;;;;5013599;28;20069;-52
2023/01/14 08:33:33;;;;;;;42.50;32.93;;;7.20;1.00;;;;;;4996650;28;20029;-53
2023/01/14 08:36:05;;;;;;;48.40;34.93;;;7.20;1.00;;;;;;5014321;28;20018;-51
2023/01/14 08:38:51;;;;;;;51.43;34.63;;;7.10;1.00;;;;;;5014532;28;20025;-53
2023/01/14 08:41:17;;;;;;;45.03;32.87;;;7.10;1.00;;;;;;5001893;28;20022;-51
2023/01/14 08:43:47;;;;;;;41.93;31.40;;;7.10;1.00;;;;;;5014217;28;20101;-52
2023/01/14 08:46:13;;;;;;;40.37;32.10;;;7.20;1.00;;;;;;4996628;28;20080;-50
2023/01/14 08:48:39;;;;;;;42.77;29.47;;;7.30;1.00;;;;;;5014496;28;20057;-52
2023/01/14 08:51:07;;;;;;;36.07;26.23;;;7.20;1.00;;;;;;5014089;28;20038;-51
2023/01/14 08:53:35;;;;;;;34.07;25.50;;;7.30;1.00;;;;;;5014113;28;20030;-55
2023/01/14 08:56:01;;;;;;;31.17;23.57;;;7.30;1.00;;;;;;5013995;28;20471;-52
2023/01/14 08:58:27;;;;;;;33.13;24.97;;;7.40;1.00;;;;;;5014000;28;20496;-50
2023/01/14 09:00:57;;;;;;;33.93;24.70;;;7.40;1.00;;;;;;5014156;28;20034;-52
2023/01/14 09:03:23;;;;;;;33.57;25.00;;;7.30;1.00;;;;;;5013788;28;20475;-51
2023/01/14 09:05:48;;;;;;;30.43;24.60;;;7.40;1.00;;;;;;5013837;28;20030;-52
2023/01/14 09:19:15;;;;;;;34.17;23.40;;;7.70;1.00;;;;;;5014063;28;20073;-50
2023/01/14 09:21:41;;;;;;;32.27;24.40;;;7.80;1.00;;;;;;4996204;28;20057;-53
2023/01/14 09:24:06;;;;;;;32.10;24.00;;;7.80;1.00;;;;;;5013925;28;20113;-53
2023/01/14 09:26:32;;;;;;;34.73;25.63;;;7.70;1.00;;;;;;5013166;28;20037;-52
2023/01/14 09:28:58;;;;;;;31.97;23.93;;;7.80;1.00;;;;;;5013216;28;20033;-56
2023/01/14 09:31:23;;;;;;;31.57;24.60;;;7.80;1.00;;;;;;5013255;28;20034;-51
2023/01/14 09:33:49;;;;;;;34.83;25.63;;;7.90;1.00;;;;;;5013687;28;20114;-51
2023/01/14 09:36:14;;;;;;;30.87;24.17;;;8.00;1.00;;;;;;5008386;28;20038;-53
2023/01/14 09:38:40;;;;;;;31.83;25.63;;;8.00;1.00;;;;;;5005008;28;20022;-54
2023/01/14 09:41:06;;;;;;;32.10;24.43;;;8.00;1.00;;;;;;5005443;28;20022;-56
2023/01/14 09:43:31;;;;;;;31.77;24.37;;;8.10;1.00;;;;;;5008730;28;20104;-54
2023/01/14 09:46:00;;;;;;;29.70;23.73;;;8.10;1.00;;;;;;5010838;28;20145;-54
2023/01/14 09:48:30;;;;;;;29.47;23.13;;;8.10;1.00;;;;;;5011801;28;20067;-56
2023/01/14 09:51:08;;;;;;;29.27;22.27;;;8.20;1.00;;;;;;5011917;28;20034;-54
2023/01/14 09:53:55;;;;;;;27.23;22.30;;;8.20;1.00;;;;;;4990188;28;20068;-55
2023/01/14 09:56:31;;;;;;;26.77;21.13;;;8.20;1.00;;;;;;5001555;28;20104;-52
2023/01/14 09:59:06;;;;;;;30.93;21.73;;;8.30;1.00;;;;;;5001804;28;20026;-52
2023/01/14 10:01:42;;;;;;;28.03;22.00;;;8.40;1.00;;;;;;5012769;28;20072;-52
2023/01/14 10:04:30;;;;;;;29.13;19.87;;;8.40;1.00;;;;;;5004829;28;20029;-53
2023/01/14 10:06:58;;;;;;;28.80;18.60;;;8.50;1.00;;;;;;5006789;28;20121;-54
2023/01/14 10:09:35;;;;;;;28.47;20.57;;;8.50;1.00;;;;;;5012572;28;20061;-52
2023/01/14 10:12:04;;;;;;;21.87;17.90;;;8.60;1.00;;;;;;5012373;28;20157;-51
2023/01/14 10:14:47;;;;;;;22.77;17.27;;;8.70;1.00;;;;;;5012011;28;20534;-55
2023/01/14 10:17:18;;;;;;;21.97;17.00;;;8.80;1.00;;;;;;5012845;28;20024;-54
2023/01/14 10:19:48;;;;;;;22.03;17.57;;;8.90;1.00;;;;;;5012617;28;20375;-54
2023/01/14 10:22:30;;;;;;;19.07;15.03;;;9.00;1.00;;;;;;5012358;28;20018;-53
2023/01/14 10:24:56;;;;;;;21.07;15.57;;;8.90;1.00;;;;;;5012450;28;20053;-56
2023/01/14 10:27:27;;;;;;;19.43;16.47;;;9.10;1.00;;;;;;5012594;28;20076;-54
2023/01/14 10:30:19;;;;;;;22.23;17.03;;;9.10;1.00;;;;;;4994779;28;20038;-53
2023/01/14 10:32:48;;;;;;;22.97;16.60;;;9.10;1.00;;;;;;4999413;28;20345;-53
2023/01/14 10:35:16;;;;;;;20.20;14.97;;;9.20;1.00;;;;;;5012160;28;20112;-53
2023/01/14 10:37:42;;;;;;;19.63;15.20;;;9.30;1.00;;;;;;5012262;28;20045;-51
2023/01/14 10:40:27;;;;;;;19.47;16.77;;;9.30;1.00;;;;;;5012185;28;20049;-56
2023/01/14 10:42:54;;;;;;;19.83;14.03;;;9.40;1.00;;;;;;5003766;28;20052;-51
2023/01/14 10:45:20;;;;;;;21.77;14.77;;;9.40;1.00;;;;;;5011944;28;20138;-56
2023/01/14 10:47:47;;;;;;;17.23;14.07;;;9.50;1.00;;;;;;5010724;28;20136;-51
2023/01/14 10:50:29;;;;;;;24.23;14.47;;;9.50;1.00;;;;;;4984567;28;20026;-54
2023/01/14 10:53:20;;;;;;;16.73;13.60;;;9.40;1.00;;;;;;5011960;28;20356;-52
2023/01/14 10:55:53;;;;;;;17.93;13.33;;;9.50;1.00;;;;;;4997410;28;20032;-54
2023/01/14 10:58:49;;;;;;;16.17;12.77;;;9.50;1.00;;;;;;5001706;28;20121;-55
2023/01/14 11:01:15;;;;;;;18.30;12.40;;;9.50;1.00;;;;;;4982446;28;20507;-52
2023/01/14 11:03:47;;;;;;;16.70;13.17;;;9.50;1.00;;;;;;5015982;28;20117;-56
2023/01/14 11:06:15;;;;;;;17.43;13.03;;;9.60;1.00;;;;;;5015923;28;20108;-54
2023/01/14 11:08:46;;;;;;;17.37;12.70;;;9.70;1.00;;;;;;5002375;28;20096;-53
2023/01/14 11:11:17;;;;;;;16.83;11.40;;;9.60;1.00;;;;;;4998011;28;20045;-54
2023/01/14 11:13:45;;;;;;;16.23;12.03;;;9.70;1.00;;;;;;5012035;28;20101;-53
2023/01/14 11:16:24;;;;;;;14.33;11.70;;;9.70;1.00;;;;;;5015715;28;20383;-54
2023/01/14 11:18:53;;;;;;;17.25;13.07;;;9.80;1.00;;;;;;4997748;28;20496;-53
2023/01/14 11:21:21;;;;;;;15.57;11.70;;;9.80;1.00;;;;;;5015595;28;20034;-54
2023/01/14 11:23:58;;;;;;;21.40;13.73;;;9.90;1.00;;;;;;5015481;28;20072;-51
2023/01/14 11:26:26;;;;;;;20.30;12.90;;;9.90;1.00;;;;;;4997664;28;20064;-52
2023/01/14 11:28:58;;;;;;;17.98;11.77;;;10.00;1.00;;;;;;5015364;28;20028;-51
2023/01/14 11:31:35;;;;;;;17.23;12.50;;;10.00;1.00;;;;;;5015280;28;20045;-53
2023/01/14 11:34:01;;;;;;;16.42;12.20;;;10.00;1.00;;;;;;5015263;28;20022;-51
2023/01/14 11:36:32;;;;;;;17.55;13.10;;;10.10;1.00;;;;;;5015187;28;20365;-51
2023/01/14 11:38:59;;;;;;;14.30;11.45;;;10.20;1.00;;;;;;5015457;28;20117;-51
2023/01/14 11:41:35;;;;;;;22.10;13.52;;;10.20;1.00;;;;;;5015483;28;20445;-56
2023/01/14 11:44:02;;;;;;;17.00;11.93;;;10.30;1.00;;;;;;5015105;28;20454;-54
2023/01/14 11:46:28;;;;;;;14.82;11.27;;;10.40;1.00;;;;;;5015122;28;20499;-55
2023/01/14 11:49:31;;;;;;;17.85;11.38;;;10.40;1.00;;;;;;5015063;28;20040;-53
2023/01/14 11:52:00;;;;;;;15.98;11.32;;;10.30;1.00;;;;;;5002009;28;20115;-55
2023/01/14 11:54:38;;;;;;;13.00;10.40;;;10.40;1.00;;;;;;5015025;28;20025;-54
2023/01/14 11:57:05;;;;;;;21.13;11.35;;;10.40;1.00;;;;;;5014952;28;20029;-54
2023/01/14 11:59:38;;;;;;;15.80;11.50;;;10.40;1.00;;;;;;5014700;28;20378;-53
2023/01/14 12:02:21;;;;;;;15.57;10.25;;;10.40;1.00;;;;;;5014895;28;20152;-53
2023/01/14 12:04:55;;;;;;;14.77;9.65;;;10.40;1.00;;;;;;5015036;28;20026;-54
2023/01/14 12:07:32;;;;;;;11.45;8.63;;;10.40;1.00;;;;;;5013645;28;20018;-55
2023/01/14 12:10:20;;;;;;;15.52;10.82;;;10.40;1.00;;;;;;5012169;28;20471;-55
2023/01/14 12:18:58;;;;;;;17.92;10.50;;;10.40;1.00;;;;;;5014702;28;20037;-52
2023/01/14 12:21:30;;;;;;;13.80;9.73;;;10.50;1.00;;;;;;4996987;28;20467;-53
2023/01/14 12:24:06;;;;;;;12.18;9.43;;;10.40;1.00;;;;;;5001578;28;20022;-53
2023/01/14 12:26:38;;;;;;;12.23;9.30;;;10.40;1.00;;;;;;5014816;28;20144;-53
2023/01/14 12:29:10;;;;;;;14.25;9.32;;;10.50;1.00;;;;;;5001566;28;20501;-50
2023/01/14 12:31:44;;;;;;;12.93;8.95;;;10.70;1.00;;;;;;5014428;28;20065;-53
2023/01/14 12:34:24;;;;;;;12.10;9.77;;;10.80;1.00;;;;;;4983779;28;20056;-51
2023/01/14 12:36:55;;;;;;;13.38;10.43;;;10.90;1.00;;;;;;5014217;28;20029;-56
2023/01/14 12:45:42;;;;;;;13.50;8.13;;;10.90;1.00;;;;;;5014140;28;20080;-50
2023/01/14 12:48:09;;;;;;;12.25;8.75;;;10.80;1.00;;;;;;5003016;28;20089;-51
2023/01/14 12:50:43;;;;;;;12.30;9.65;;;10.90;1.00;;;;;;5004909;28;20430;-50
2023/01/14 12:53:38;;;;;;;10.55;8.85;;;10.90;1.00;;;;;;5013878;28;20073;-51
2023/01/14 12:56:06;;;;;;;11.48;8.80;;;10.90;1.00;;;;;;5000543;28;20052;-51
2023/01/14 12:58:52;;;;;;;10.70;8.63;;;10.90;1.00;;;;;;5013790;28;20022;-49
2023/01/14 13:01:23;;;;;;;14.15;9.05;;;10.90;1.00;;;;;;5013633;28;20057;-51
2023/01/14 13:03:57;;;;;;;12.50;9.05;;;10.90;1.00;;;;;;5013680;28;20033;-49
2023/01/14 13:06:35;;;;;;;14.07;9.63;;;10.90;1.00;;;;;;5013778;28;20475;-52
2023/01/14 13:09:03;;;;;;;12.70;8.90;;;11.00;1.00;;;;;;5013619;28;20022;-51
2023/01/14 13:11:52;;;;;;;13.10;9.77;;;11.10;1.00;;;;;;4995712;28;20061;-50
2023/01/14 13:14:38;;;;;;;13.13;10.05;;;11.10;1.00;;;;;;5013667;28;20116;-49
2023/01/14 13:17:07;;;;;;;13.32;10.75;;;11.10;1.00;;;;;;5013163;28;20022;-51
2023/01/14 13:19:49;;;;;;;10.50;9.32;;;11.20;1.00;;;;;;5013461;28;20033;-51
2023/01/14 13:22:38;;;;;;;15.35;9.63;;;11.30;1.00;;;;;;5000389;28;20375;-50
2023/01/14 13:25:08;;;;;;;12.85;9.25;;;11.30;1.00;;;;;;4998531;28;20033;-49
2023/01/14 13:27:35;;;;;;;13.82;10.18;;;11.30;1.00;;;;;;5013407;28;20056;-50
2023/01/14 13:30:19;;;;;;;14.02;10.38;;;11.30;1.00;;;;;;5013169;28;20029;-50
2023/01/14 13:33:00;;;;;;;14.43;11.65;;;11.30;1.00;;;;;;5013322;28;20088;-49
2023/01/14 13:35:37;;;;;;;15.77;11.18;;;11.40;1.00;;;;;;5013055;28;20541;-51
2023/01/14 13:38:24;;;;;;;17.15;10.98;;;11.30;1.00;;;;;;5000396;28;20021;-51
2023/01/14 13:40:53;;;;;;;13.68;10.55;;;11.30;1.00;;;;;;5012998;28;20479;-50
2023/01/14 13:43:28;;;;;;;12.93;11.35;;;11.40;1.00;;;;;;5013005;28;20121;-50
2023/01/14 13:46:01;;;;;;;14.05;10.65;;;11.30;1.00;;;;;;5012878;28;20049;-50
2023/01/14 13:48:51;;;;;;;15.82;10.05;;;11.40;1.00;;;;;;4995338;28;20355;-54
2023/01/14 13:51:27;;;;;;;13.10;9.95;;;11.40;1.00;;;;;;5001410;28;20414;-49